TAF Text Data
IDs:
Format:
Raw Decoded Include METAR

Data at: 1213 UTC 16 Jul 2019

KSLN 161153Z 16005KT 10SM CLR 21/19 A2994 RMK AO2 SLP123 T02110189 10233 20206 53009

KSLN 161120Z 1612/1712 17005KT P6SM SCT200
  FM161800 17014G21KT P6SM FEW200
  FM170200 15010KT P6SM FEW250
  FM170800 17011KT P6SM SCT200 WS020/21040KT


KATW 161145Z 26006KT 10SM FEW020 22/20 A2988

KATW 161120Z 1612/1712 23004KT P6SM SCT040
  FM161700 24007KT P6SM SCT035
  FM170200 29003KT P6SM SCT050
  FM170500 03004KT P6SM BKN080
  FM171000 04003KT P6SM BKN060